Time;durP1;ratioP1;P1;durP2;ratioP2;P2;SDS_P1;SDS_P2;PMS_P1;PMS_P2;Temp;Humidity;BMP_temperature;BMP_pressure;BME280_temperature;BME280_humidity;BME280_pressure;Samples;Min_cycle;Max_cycle;Signal;HPM_P1;HPM_P2
2022/01/08 00:00:04;;;;;;;5.30;3.60;;;2.90;97.30;;;;;;5034591;28;20474;-83
2022/01/08 00:02:30;;;;;;;6.00;3.30;;;2.90;97.30;;;;;;5035470;28;20430;-82
2022/01/08 00:04:55;;;;;;;7.47;3.40;;;2.90;97.30;;;;;;5035991;28;20415;-83
2022/01/08 00:07:21;;;;;;;5.20;3.37;;;2.90;97.30;;;;;;5034521;28;20176;-84
2022/01/08 00:09:46;;;;;;;5.77;3.20;;;2.90;97.30;;;;;;5036130;28;20191;-82
2022/01/08 00:12:13;;;;;;;5.00;2.83;;;2.90;97.30;;;;;;5035236;28;20679;-83
2022/01/08 00:14:39;;;;;;;7.67;3.27;;;2.90;97.30;;;;;;5036373;28;20199;-83
2022/01/08 00:17:04;;;;;;;7.10;3.43;;;2.90;97.30;;;;;;5035239;28;20423;-83
2022/01/08 00:19:30;;;;;;;6.50;2.87;;;2.90;97.30;;;;;;5035250;28;20204;-82
2022/01/08 00:21:55;;;;;;;3.10;2.40;;;2.90;97.30;;;;;;5037082;28;20202;-84
2022/01/08 00:24:22;;;;;;;5.57;3.40;;;2.90;97.30;;;;;;5036104;28;20206;-83
2022/01/08 00:26:48;;;;;;;4.90;2.43;;;3.00;97.30;;;;;;5034351;28;20601;-83
2022/01/08 00:29:13;;;;;;;4.20;2.93;;;3.00;97.30;;;;;;5035045;28;20404;-84
2022/01/08 00:31:39;;;;;;;2.43;2.33;;;3.00;97.30;;;;;;5034770;28;20207;-82
2022/01/08 00:34:05;;;;;;;3.03;2.13;;;3.00;97.30;;;;;;5034891;28;20195;-83
2022/01/08 00:36:31;;;;;;;4.20;2.77;;;3.00;97.30;;;;;;5034577;28;20932;-82
2022/01/08 00:38:56;;;;;;;5.40;2.57;;;3.00;97.30;;;;;;5035203;28;20215;-82
2022/01/08 00:41:22;;;;;;;4.50;2.83;;;3.00;97.30;;;;;;5035114;28;20676;-82
2022/01/08 00:43:47;;;;;;;2.90;2.20;;;3.00;97.30;;;;;;5035963;28;20180;-82
2022/01/08 00:46:13;;;;;;;3.33;2.43;;;3.00;97.30;;;;;;5038907;28;20630;-83
2022/01/08 00:48:38;;;;;;;5.10;2.60;;;3.00;97.30;;;;;;5057205;28;20236;-82
2022/01/08 00:51:04;;;;;;;5.53;2.80;;;2.90;97.30;;;;;;5055251;28;20202;-83
2022/01/08 00:53:29;;;;;;;4.27;2.80;;;2.90;97.30;;;;;;5055538;28;20226;-83
2022/01/08 00:55:56;;;;;;;2.57;2.10;;;2.80;97.30;;;;;;5055071;28;20190;-82
2022/01/08 00:58:22;;;;;;;3.13;2.50;;;2.80;97.30;;;;;;5056285;28;20199;-83
2022/01/08 01:00:47;;;;;;;3.10;2.23;;;2.80;97.30;;;;;;5056410;28;20501;-82
2022/01/08 01:03:13;;;;;;;2.47;2.10;;;2.70;97.30;;;;;;5056296;28;20943;-82
2022/01/08 01:05:38;;;;;;;4.00;2.60;;;2.70;97.30;;;;;;5056081;28;20176;-82
2022/01/08 01:08:04;;;;;;;2.97;2.53;;;2.60;97.30;;;;;;5056552;28;20219;-82
2022/01/08 01:10:30;;;;;;;3.33;3.00;;;2.60;97.30;;;;;;5056744;28;20298;-82
2022/01/08 01:12:55;;;;;;;2.33;2.07;;;2.50;97.30;;;;;;5055936;28;20629;-82
2022/01/08 01:15:21;;;;;;;3.20;2.43;;;2.50;97.30;;;;;;5055557;28;20669;-82
2022/01/08 01:17:47;;;;;;;4.20;2.43;;;2.50;97.30;;;;;;5056363;28;20276;-82
2022/01/08 01:20:15;;;;;;;2.53;2.17;;;2.40;97.30;;;;;;5056095;28;20450;-82
2022/01/08 01:22:56;;;;;;;4.17;3.10;;;2.40;97.30;;;;;;5056222;28;20516;-83
2022/01/08 01:25:28;;;;;;;3.37;2.40;;;2.40;97.30;;;;;;5056303;28;20445;-82
2022/01/08 01:41:09;;;;;;;4.67;2.50;;;2.30;97.30;;;;;;5057255;28;20417;-81
2022/01/08 01:49:16;;;;;;;6.20;2.23;;;2.20;97.30;;;;;;5040963;28;20418;-82
2022/01/08 01:51:42;;;;;;;3.47;2.53;;;2.20;97.30;;;;;;5039852;28;20920;-82
2022/01/08 01:54:08;;;;;;;2.40;2.00;;;2.20;97.30;;;;;;5040207;28;20180;-83
2022/01/08 01:56:34;;;;;;;3.10;2.20;;;2.20;97.30;;;;;;5039629;28;20423;-81
2022/01/08 01:59:00;;;;;;;2.50;1.80;;;2.20;97.30;;;;;;5040536;28;20200;-82
2022/01/08 02:01:25;;;;;;;3.83;2.70;;;2.20;97.30;;;;;;5039884;28;20839;-82
2022/01/08 02:03:51;;;;;;;3.83;2.53;;;2.20;97.30;;;;;;5040015;28;20187;-82
2022/01/08 02:06:17;;;;;;;3.40;2.40;;;2.10;97.30;;;;;;5039089;28;20264;-82
2022/01/08 02:08:43;;;;;;;3.27;2.40;;;2.10;97.30;;;;;;5039435;28;20451;-82
2022/01/08 02:11:08;;;;;;;4.20;3.30;;;2.00;97.30;;;;;;5040119;28;20196;-81
2022/01/08 02:13:35;;;;;;;3.70;2.30;;;2.00;97.30;;;;;;5040064;28;20208;-82
2022/01/08 02:16:01;;;;;;;3.20;2.17;;;2.00;97.30;;;;;;5039148;28;20184;-82
2022/01/08 02:18:28;;;;;;;4.00;2.13;;;2.00;97.30;;;;;;5038125;28;20973;-81
2022/01/08 02:20:55;;;;;;;4.23;2.53;;;1.90;97.30;;;;;;5038019;28;20434;-82
2022/01/08 02:23:22;;;;;;;3.47;2.40;;;1.90;97.30;;;;;;5038143;28;20423;-82
2022/01/08 02:25:48;;;;;;;4.03;2.60;;;1.80;97.30;;;;;;5038285;28;20454;-82
2022/01/08 02:28:14;;;;;;;4.40;2.80;;;1.80;97.30;;;;;;5038386;28;20411;-82
2022/01/08 02:30:39;;;;;;;4.57;2.60;;;1.80;97.30;;;;;;5038325;28;20446;-81
2022/01/08 02:33:05;;;;;;;2.90;2.57;;;1.80;97.30;;;;;;5038369;28;20202;-82
2022/01/08 02:35:30;;;;;;;3.43;2.50;;;1.70;97.30;;;;;;5038886;28;20630;-82
2022/01/08 02:37:56;;;;;;;3.40;2.50;;;1.70;97.30;;;;;;5039409;28;20203;-82
2022/01/08 02:40:23;;;;;;;5.67;3.20;;;1.70;97.30;;;;;;5037838;28;20204;-82
2022/01/08 02:42:52;;;;;;;2.33;2.17;;;1.70;97.30;;;;;;5037299;28;20185;-82
2022/01/08 02:45:20;;;;;;;5.83;2.33;;;1.70;97.30;;;;;;5038172;28;20506;-82
2022/01/08 02:47:46;;;;;;;3.57;2.47;;;1.60;97.30;;;;;;5038894;28;20420;-82
2022/01/08 02:50:12;;;;;;;3.30;2.33;;;1.60;97.30;;;;;;5038701;28;20434;-82
2022/01/08 02:52:42;;;;;;;3.60;2.43;;;1.60;97.30;;;;;;5038336;28;20439;-83
2022/01/08 02:55:08;;;;;;;7.23;2.33;;;1.60;97.30;;;;;;5036107;28;20191;-82
2022/01/08 02:57:34;;;;;;;4.03;2.50;;;1.60;97.30;;;;;;5035450;28;20477;-83
2022/01/08 02:59:59;;;;;;;5.53;3.07;;;1.60;97.30;;;;;;5035995;28;20883;-83
2022/01/08 03:02:25;;;;;;;4.20;2.37;;;1.70;97.30;;;;;;5037232;28;20204;-81
2022/01/08 03:04:52;;;;;;;2.40;2.17;;;1.70;97.30;;;;;;5037136;28;20169;-82
2022/01/08 03:07:18;;;;;;;5.30;3.00;;;1.70;97.30;;;;;;5036933;28;20173;-82
2022/01/08 03:09:46;;;;;;;4.13;2.47;;;1.70;97.30;;;;;;5037164;28;20561;-82
2022/01/08 03:12:12;;;;;;;3.70;2.33;;;1.70;97.30;;;;;;5037017;28;20284;-82
2022/01/08 03:14:37;;;;;;;3.00;2.60;;;1.70;97.30;;;;;;5037527;28;20419;-82
2022/01/08 03:17:04;;;;;;;6.93;2.80;;;1.70;97.30;;;;;;5038725;28;20295;-82
2022/01/08 03:19:30;;;;;;;3.87;2.40;;;1.70;97.30;;;;;;5037807;28;20702;-82
2022/01/08 03:21:57;;;;;;;4.57;2.43;;;1.60;97.30;;;;;;5036983;28;20471;-82
2022/01/08 03:24:27;;;;;;;2.70;2.50;;;1.60;97.30;;;;;;5036510;28;20423;-82
2022/01/08 03:26:54;;;;;;;4.60;2.63;;;1.60;97.30;;;;;;5037078;28;20896;-82
2022/01/08 03:29:20;;;;;;;3.70;2.50;;;1.60;97.30;;;;;;5036493;28;20450;-82
2022/01/08 03:31:46;;;;;;;3.97;2.73;;;1.60;97.30;;;;;;5036512;28;20450;-82
2022/01/08 03:34:12;;;;;;;3.10;2.37;;;1.60;97.30;;;;;;5036287;28;20412;-82
2022/01/08 03:36:37;;;;;;;5.17;2.80;;;1.50;97.30;;;;;;5036929;28;20176;-81
2022/01/08 03:39:03;;;;;;;3.00;2.33;;;1.50;97.30;;;;;;5037095;28;20192;-81
2022/01/08 03:41:29;;;;;;;4.00;2.63;;;1.40;97.30;;;;;;5036649;28;20196;-82
2022/01/08 03:43:54;;;;;;;3.73;2.70;;;1.40;97.30;;;;;;5036233;28;20200;-81
2022/01/08 03:46:21;;;;;;;3.70;2.20;;;1.30;97.30;;;;;;5036362;28;20212;-81
2022/01/08 03:51:30;;;;;;;4.40;2.47;;;1.20;97.30;;;;;;5037600;28;20446;-82
2022/01/08 03:53:57;;;;;;;4.00;2.37;;;1.10;97.30;;;;;;5036023;28;20461;-81
2022/01/08 03:56:23;;;;;;;3.40;2.70;;;1.10;97.30;;;;;;5036441;28;20423;-82
2022/01/08 03:58:49;;;;;;;3.80;3.00;;;1.10;97.30;;;;;;5036501;28;20463;-81
2022/01/08 04:01:14;;;;;;;2.20;1.93;;;1.00;97.30;;;;;;5036630;28;20964;-83
2022/01/08 04:03:40;;;;;;;4.70;2.53;;;1.00;97.30;;;;;;5036524;28;20169;-82
2022/01/08 04:06:05;;;;;;;5.00;2.77;;;1.00;97.30;;;;;;5035775;28;20174;-82
2022/01/08 04:08:31;;;;;;;3.83;3.23;;;1.00;97.30;;;;;;5035892;28;20180;-82
2022/01/08 04:10:57;;;;;;;4.60;2.90;;;1.00;97.30;;;;;;5035963;28;20196;-82
2022/01/08 04:13:26;;;;;;;3.03;2.80;;;0.90;97.30;;;;;;5034731;28;20176;-82
2022/01/08 04:15:57;;;;;;;3.83;2.50;;;0.90;97.30;;;;;;5036335;28;20230;-81
2022/01/08 04:18:23;;;;;;;3.97;2.73;;;0.90;97.30;;;;;;5035383;28;20523;-81
2022/01/08 04:21:20;;;;;;;5.17;2.90;;;0.90;97.30;;;;;;5034958;28;20489;-82
2022/01/08 04:23:43;;;;;;;4.47;2.77;;;0.90;97.30;;;;;;5037083;28;20169;-81
2022/01/08 04:26:08;;;;;;;3.10;2.30;;;0.80;97.30;;;;;;5035386;28;20424;-82
2022/01/08 04:28:34;;;;;;;3.97;2.77;;;0.80;97.30;;;;;;5036741;28;20180;-82
2022/01/08 04:30:59;;;;;;;3.70;3.07;;;0.70;97.30;;;;;;5035492;28;20208;-82
2022/01/08 04:33:25;;;;;;;3.07;2.73;;;0.70;97.30;;;;;;5036449;28;20287;-82
2022/01/08 04:35:51;;;;;;;3.77;3.03;;;0.60;97.30;;;;;;5036611;28;20181;-81
2022/01/08 04:38:16;;;;;;;4.73;2.93;;;0.60;97.30;;;;;;5033968;28;20208;-81
2022/01/08 04:40:42;;;;;;;5.70;3.30;;;0.70;97.30;;;;;;5035652;28;20188;-81
2022/01/08 04:43:08;;;;;;;6.97;2.93;;;0.70;97.30;;;;;;5034355;28;20176;-81
2022/01/08 04:45:33;;;;;;;10.87;2.83;;;0.80;97.30;;;;;;5049728;28;20186;-81
2022/01/08 04:48:00;;;;;;;3.70;2.73;;;0.90;97.30;;;;;;5047207;28;20181;-81
2022/01/08 04:50:28;;;;;;;4.47;2.90;;;0.90;97.30;;;;;;5039762;28;20206;-81
2022/01/08 04:52:55;;;;;;;5.13;2.90;;;0.90;97.30;;;;;;5036006;28;20518;-81
2022/01/08 04:55:21;;;;;;;5.93;3.03;;;0.90;97.30;;;;;;5035689;28;20423;-81
2022/01/08 04:57:47;;;;;;;4.03;2.87;;;0.90;97.30;;;;;;5035199;28;20431;-81
2022/01/08 05:00:14;;;;;;;6.33;3.33;;;0.90;97.30;;;;;;5035089;28;20498;-81
2022/01/08 05:02:39;;;;;;;4.20;3.20;;;0.90;97.30;;;;;;5035451;28;20503;-81
2022/01/08 05:05:05;;;;;;;6.43;3.50;;;0.90;97.30;;;;;;5034407;28;20431;-81
2022/01/08 05:07:31;;;;;;;3.50;2.57;;;0.90;97.30;;;;;;5034565;28;20176;-81
2022/01/08 05:09:57;;;;;;;6.03;3.53;;;0.90;97.30;;;;;;5036320;28;20976;-81
2022/01/08 05:12:23;;;;;;;5.93;3.30;;;0.80;97.30;;;;;;5036390;28;20280;-81
2022/01/08 05:14:49;;;;;;;4.23;3.03;;;0.70;97.30;;;;;;5036328;28;20765;-82
2022/01/08 05:17:14;;;;;;;5.00;3.40;;;0.70;97.30;;;;;;5035721;28;20414;-81
2022/01/08 05:19:50;;;;;;;7.07;3.07;;;0.70;97.30;;;;;;5035902;28;20485;-82
2022/01/08 05:22:24;;;;;;;5.10;2.80;;;0.70;97.30;;;;;;5039414;28;20223;-82
2022/01/08 05:24:51;;;;;;;7.93;2.97;;;0.70;97.30;;;;;;5039768;28;20418;-82
2022/01/08 05:27:17;;;;;;;5.60;3.00;;;0.80;97.30;;;;;;5040024;28;20415;-82
2022/01/08 05:29:48;;;;;;;4.17;2.67;;;0.80;97.30;;;;;;5039957;28;20419;-82
2022/01/08 05:32:16;;;;;;;4.90;3.00;;;0.90;97.30;;;;;;5040015;28;20439;-83
2022/01/08 05:34:48;;;;;;;6.37;3.30;;;0.90;97.30;;;;;;5039992;28;20423;-82
2022/01/08 05:37:14;;;;;;;5.90;3.33;;;1.00;97.30;;;;;;5039576;28;20901;-82
2022/01/08 05:39:40;;;;;;;4.83;2.83;;;1.00;97.30;;;;;;5039474;28;20529;-83
2022/01/08 05:42:06;;;;;;;11.00;3.37;;;1.10;97.30;;;;;;5039613;28;20806;-83
2022/01/08 05:44:32;;;;;;;4.27;2.33;;;1.10;97.30;;;;;;5039388;28;20461;-82
2022/01/08 05:46:58;;;;;;;5.77;3.63;;;1.10;97.30;;;;;;5039894;28;20429;-81
2022/01/08 05:49:23;;;;;;;6.30;3.30;;;1.20;97.30;;;;;;5039502;28;20414;-83
2022/01/08 05:51:49;;;;;;;5.10;2.90;;;1.10;97.30;;;;;;5039471;28;20193;-83
2022/01/08 05:54:15;;;;;;;4.57;3.50;;;1.20;97.30;;;;;;5038771;28;20180;-83
2022/01/08 05:56:40;;;;;;;4.40;2.83;;;1.10;97.30;;;;;;5039138;28;20195;-81
2022/01/08 05:59:06;;;;;;;4.27;3.13;;;1.10;97.30;;;;;;5038744;28;20204;-83
2022/01/08 06:01:39;;;;;;;5.70;3.47;;;1.10;97.30;;;;;;5039556;28;20231;-83
2022/01/08 06:04:04;;;;;;;7.90;3.47;;;1.10;97.30;;;;;;5039639;28;20630;-82
2022/01/08 06:06:30;;;;;;;8.20;3.90;;;1.10;97.30;;;;;;5037222;28;20453;-82
2022/01/08 06:08:56;;;;;;;5.87;3.53;;;1.10;97.30;;;;;;5037649;28;20207;-82
2022/01/08 06:11:21;;;;;;;5.27;3.20;;;1.10;97.30;;;;;;5037300;28;20202;-81
2022/01/08 06:13:47;;;;;;;4.87;2.90;;;1.10;97.30;;;;;;5037257;28;20181;-81
2022/01/08 06:16:13;;;;;;;6.43;3.30;;;1.10;97.30;;;;;;5037153;28;20185;-81
2022/01/08 06:18:39;;;;;;;6.13;3.00;;;1.10;97.30;;;;;;5036965;28;20470;-81
2022/01/08 06:21:05;;;;;;;7.13;3.53;;;1.10;97.30;;;;;;5038805;28;20199;-82
2022/01/08 06:23:30;;;;;;;5.17;3.27;;;1.10;97.30;;;;;;5037323;28;20411;-82
2022/01/08 06:25:56;;;;;;;15.97;3.80;;;1.20;97.30;;;;;;5037574;28;20177;-81
2022/01/08 06:28:22;;;;;;;4.83;3.30;;;1.20;97.30;;;;;;5037644;28;20200;-82
2022/01/08 06:30:47;;;;;;;6.20;3.97;;;1.30;97.30;;;;;;5035708;28;20223;-82
2022/01/08 06:33:14;;;;;;;7.07;4.87;;;1.30;97.30;;;;;;5037797;28;20177;-81
2022/01/08 06:35:40;;;;;;;5.00;3.70;;;1.40;97.30;;;;;;5036913;28;20192;-81
2022/01/08 06:38:06;;;;;;;5.17;3.70;;;1.40;97.30;;;;;;5036944;28;20423;-81
2022/01/08 06:40:31;;;;;;;7.87;4.10;;;1.50;97.30;;;;;;5035648;28;20177;-80
2022/01/08 06:42:57;;;;;;;6.83;3.80;;;1.50;97.30;;;;;;5036079;28;20185;-80
2022/01/08 06:45:23;;;;;;;8.33;3.90;;;1.50;97.30;;;;;;5036253;28;20184;-81
2022/01/08 06:47:48;;;;;;;9.87;4.83;;;1.50;97.30;;;;;;5036705;28;20184;-81
2022/01/08 06:50:14;;;;;;;9.13;4.47;;;1.60;97.30;;;;;;5038781;28;20199;-81
2022/01/08 06:52:40;;;;;;;7.50;4.40;;;1.70;97.30;;;;;;5037211;28;20192;-81
2022/01/08 06:55:06;;;;;;;9.10;3.83;;;1.70;97.30;;;;;;5036172;28;20176;-82
2022/01/08 06:57:32;;;;;;;9.13;4.57;;;1.80;97.30;;;;;;5035802;28;20427;-81
2022/01/08 07:00:00;;;;;;;9.90;3.80;;;1.90;97.30;;;;;;5035874;28;20567;-81
2022/01/08 07:02:26;;;;;;;8.40;3.83;;;1.90;97.30;;;;;;5035791;28;20670;-81
2022/01/08 07:04:51;;;;;;;6.80;3.77;;;2.00;97.30;;;;;;5037076;28;20415;-81
2022/01/08 07:07:17;;;;;;;7.87;3.90;;;2.00;97.30;;;;;;5031049;28;20186;-81
2022/01/08 07:09:42;;;;;;;5.93;3.73;;;2.00;97.30;;;;;;5029551;28;20181;-81
2022/01/08 07:12:08;;;;;;;5.73;3.90;;;2.00;97.30;;;;;;5050303;28;20231;-81
2022/01/08 07:14:33;;;;;;;6.50;3.67;;;2.00;97.30;;;;;;5036946;28;20184;-82
2022/01/08 07:16:59;;;;;;;5.90;3.60;;;2.10;97.30;;;;;;5037014;28;20187;-81
2022/01/08 07:19:25;;;;;;;5.30;3.40;;;2.10;97.30;;;;;;5037142;28;20669;-82
2022/01/08 07:21:50;;;;;;;10.70;4.00;;;2.10;97.30;;;;;;5039167;28;20203;-82
2022/01/08 07:24:16;;;;;;;9.03;4.30;;;2.10;97.30;;;;;;5053952;28;20179;-82
2022/01/08 07:26:41;;;;;;;7.43;4.77;;;2.10;97.30;;;;;;5053678;28;20690;-82
2022/01/08 07:29:07;;;;;;;8.53;4.43;;;2.10;97.30;;;;;;5037870;28;20225;-82
2022/01/08 07:31:33;;;;;;;7.30;4.07;;;2.10;97.30;;;;;;5021651;28;20232;-81
2022/01/08 07:33:58;;;;;;;7.80;3.47;;;2.10;97.30;;;;;;5034901;28;20214;-82
2022/01/08 07:36:24;;;;;;;6.13;4.17;;;2.10;97.30;;;;;;5045457;28;20242;-81
2022/01/08 07:38:50;;;;;;;5.43;3.60;;;2.10;97.30;;;;;;5035919;28;20203;-81
2022/01/08 07:41:16;;;;;;;6.20;3.90;;;2.10;97.30;;;;;;5027035;28;20200;-81
2022/01/08 07:43:41;;;;;;;6.40;3.93;;;2.20;97.30;;;;;;5035231;28;20897;-83
2022/01/08 07:46:07;;;;;;;6.13;3.87;;;2.20;97.30;;;;;;5036363;28;20267;-81
2022/01/08 07:48:33;;;;;;;7.07;3.93;;;2.20;97.30;;;;;;5038151;28;20267;-81
2022/01/08 07:50:59;;;;;;;6.60;3.90;;;2.20;97.30;;;;;;5055936;28;20448;-81
2022/01/08 07:53:25;;;;;;;8.20;4.20;;;2.20;97.30;;;;;;5046267;28;20172;-81
2022/01/08 07:55:51;;;;;;;6.80;4.10;;;2.20;97.30;;;;;;5035968;28;20426;-81
2022/01/08 07:58:20;;;;;;;12.13;3.90;;;2.20;97.30;;;;;;5036577;28;20207;-82
2022/01/08 08:00:50;;;;;;;9.17;4.20;;;2.20;97.30;;;;;;5035296;28;20278;-82
2022/01/08 08:03:15;;;;;;;6.27;4.30;;;2.20;97.30;;;;;;5035343;28;20411;-81
2022/01/08 08:05:41;;;;;;;7.00;3.60;;;2.20;97.30;;;;;;5035366;28;20939;-81
2022/01/08 08:08:07;;;;;;;13.87;4.10;;;2.30;97.30;;;;;;5035838;28;20418;-81
2022/01/08 08:10:32;;;;;;;7.80;3.67;;;2.30;97.30;;;;;;5032443;28;20189;-81
2022/01/08 08:12:58;;;;;;;7.13;4.07;;;2.30;97.30;;;;;;5035974;28;20189;-81
2022/01/08 08:15:24;;;;;;;6.43;3.40;;;2.30;97.30;;;;;;5036203;28;20180;-82
2022/01/08 08:17:50;;;;;;;6.17;3.77;;;2.30;97.30;;;;;;5035554;28;20416;-82
2022/01/08 08:20:17;;;;;;;6.37;3.40;;;2.30;97.30;;;;;;5035358;28;20455;-83
2022/01/08 08:22:43;;;;;;;5.67;3.10;;;2.30;97.30;;;;;;5036448;28;20243;-82
2022/01/08 08:25:12;;;;;;;7.03;3.90;;;2.40;97.30;;;;;;5055503;28;20501;-82
2022/01/08 08:27:39;;;;;;;6.50;3.50;;;2.40;97.30;;;;;;5056497;28;20172;-81
2022/01/08 08:30:06;;;;;;;5.73;3.03;;;2.40;97.30;;;;;;5047851;28;20997;-82
2022/01/08 08:32:32;;;;;;;9.23;4.40;;;2.40;97.30;;;;;;5027929;28;20506;-82
2022/01/08 08:34:58;;;;;;;10.47;3.67;;;2.40;97.30;;;;;;5034657;28;20427;-81
2022/01/08 08:37:23;;;;;;;4.80;3.40;;;2.40;97.30;;;;;;5027060;28;20208;-82
2022/01/08 08:39:49;;;;;;;5.43;3.60;;;2.40;97.30;;;;;;5027539;28;20212;-82
2022/01/08 08:42:15;;;;;;;7.77;3.90;;;2.50;97.30;;;;;;5041086;28;20232;-82
2022/01/08 08:44:40;;;;;;;5.67;3.00;;;2.50;97.30;;;;;;5023165;28;20654;-83
2022/01/08 08:47:06;;;;;;;5.10;3.20;;;2.50;97.30;;;;;;5036626;28;20428;-83
2022/01/08 08:49:32;;;;;;;4.27;3.43;;;2.50;97.30;;;;;;5046435;28;20725;-82
2022/01/08 08:51:58;;;;;;;6.10;3.70;;;2.50;97.30;;;;;;5030935;28;20261;-82
2022/01/08 08:54:23;;;;;;;6.33;3.43;;;2.50;97.30;;;;;;5034108;28;20411;-82
2022/01/08 08:56:49;;;;;;;8.63;2.87;;;2.50;97.30;;;;;;5049765;28;20176;-81
2022/01/08 08:59:14;;;;;;;4.73;3.23;;;2.50;97.30;;;;;;5030917;28;20629;-82
2022/01/08 09:01:41;;;;;;;4.90;2.93;;;2.50;97.30;;;;;;5021401;28;20232;-82
2022/01/08 09:04:07;;;;;;;5.97;2.50;;;2.60;97.30;;;;;;5045407;28;20589;-82
2022/01/08 09:06:32;;;;;;;4.63;2.53;;;2.60;97.30;;;;;;5053190;28;20418;-82
2022/01/08 09:08:59;;;;;;;3.23;2.40;;;2.60;97.30;;;;;;5054578;28;20176;-82
2022/01/08 09:11:24;;;;;;;4.93;2.30;;;2.60;97.30;;;;;;5053050;28;20607;-82
2022/01/08 09:13:50;;;;;;;5.57;2.97;;;2.60;97.30;;;;;;5053434;28;20472;-82
2022/01/08 09:16:16;;;;;;;9.33;3.23;;;2.60;97.30;;;;;;5034497;28;20780;-82
2022/01/08 09:18:42;;;;;;;5.67;2.87;;;2.70;97.30;;;;;;5032817;28;20196;-82
2022/01/08 09:21:08;;;;;;;7.53;2.73;;;2.70;97.30;;;;;;5033228;28;20546;-82
2022/01/08 09:23:34;;;;;;;5.70;2.03;;;2.70;97.30;;;;;;5036744;28;20632;-82
2022/01/08 09:26:01;;;;;;;4.17;2.67;;;2.70;97.30;;;;;;5034026;28;20414;-82
2022/01/08 09:28:28;;;;;;;4.50;2.60;;;2.80;97.30;;;;;;5032906;28;20955;-82
2022/01/08 09:30:54;;;;;;;2.80;2.23;;;2.80;97.30;;;;;;5033304;28;20489;-82
2022/01/08 09:33:20;;;;;;;12.83;3.10;;;2.90;97.30;;;;;;5034322;28;21062;-82
2022/01/08 09:35:46;;;;;;;3.27;2.40;;;2.90;97.30;;;;;;5031966;28;20491;-82
2022/01/08 09:38:12;;;;;;;9.37;4.77;;;2.90;97.30;;;;;;5033538;28;20423;-82
2022/01/08 09:40:38;;;;;;;13.33;5.50;;;3.00;97.30;;;;;;5034779;28;20513;-82
2022/01/08 09:43:04;;;;;;;16.57;9.30;;;3.00;97.30;;;;;;5034303;28;20407;-82
2022/01/08 09:45:30;;;;;;;6.00;2.73;;;3.00;97.30;;;;;;5042657;28;20379;-82
2022/01/08 09:47:56;;;;;;;6.03;2.43;;;3.10;97.30;;;;;;5023924;28;20424;-82
2022/01/08 09:50:21;;;;;;;10.50;4.60;;;3.10;97.30;;;;;;5024067;28;20424;-82
2022/01/08 09:52:47;;;;;;;5.53;2.53;;;3.10;97.30;;;;;;5029206;28;20435;-82
2022/01/08 09:55:13;;;;;;;11.60;5.10;;;3.20;97.30;;;;;;5031857;28;20184;-83
2022/01/08 09:57:38;;;;;;;7.97;3.83;;;3.30;97.30;;;;;;5032972;28;20245;-82
2022/01/08 10:00:13;;;;;;;8.20;3.13;;;3.30;97.30;;;;;;5032015;28;20618;-82
2022/01/08 10:02:39;;;;;;;8.23;3.70;;;3.30;97.30;;;;;;5031478;28;20196;-83
2022/01/08 10:05:10;;;;;;;13.30;3.73;;;3.40;97.30;;;;;;5033645;28;20423;-82
2022/01/08 10:07:36;;;;;;;10.30;4.57;;;3.50;97.30;;;;;;5035263;28;20179;-83
2022/01/08 10:10:13;;;;;;;4.47;3.00;;;3.50;97.30;;;;;;5035220;28;20506;-81
2022/01/08 10:12:55;;;;;;;5.27;3.10;;;3.50;97.30;;;;;;5036880;28;20235;-83
2022/01/08 10:18:33;;;;;;;5.13;3.50;;;3.40;97.30;;;;;;5035816;28;20900;-78
2022/01/08 10:21:02;;;;;;;7.20;3.97;;;3.40;97.30;;;;;;5037582;28;20481;-81
2022/01/08 10:23:32;;;;;;;6.33;3.40;;;3.40;97.30;;;;;;5039454;28;20445;-84
2022/01/08 10:26:00;;;;;;;4.60;3.20;;;3.40;97.30;;;;;;5039174;28;20407;-81
2022/01/08 10:28:33;;;;;;;9.90;4.20;;;3.30;97.30;;;;;;5040295;28;20416;-82
2022/01/08 10:31:17;;;;;;;4.80;3.00;;;3.20;97.30;;;;;;5058617;22;20522;-85
2022/01/08 10:33:46;;;;;;;4.83;2.70;;;3.20;97.30;;;;;;5030997;28;20573;-85
2022/01/08 10:36:13;;;;;;;6.27;3.07;;;3.20;97.30;;;;;;5032194;28;20785;-84
2022/01/08 10:38:39;;;;;;;6.27;2.97;;;3.30;97.30;;;;;;5030251;28;20443;-82
2022/01/08 10:41:12;;;;;;;6.80;3.37;;;3.30;97.30;;;;;;5030284;28;20485;-84
2022/01/08 10:43:38;;;;;;;17.73;4.90;;;3.30;97.30;;;;;;5032571;28;20429;-83
2022/01/08 10:46:13;;;;;;;7.00;3.53;;;3.40;97.30;;;;;;5032535;28;20418;-84
2022/01/08 10:48:42;;;;;;;8.07;3.67;;;3.30;97.30;;;;;;5029278;28;20662;-83
2022/01/08 10:51:17;;;;;;;6.90;3.83;;;3.30;97.30;;;;;;5030046;28;20453;-82
2022/01/08 10:54:01;;;;;;;13.63;4.50;;;3.40;97.30;;;;;;5030429;28;20418;-84
2022/01/08 10:56:49;;;;;;;7.50;4.30;;;3.30;97.30;;;;;;5045629;28;20434;-85
2022/01/08 10:59:23;;;;;;;9.67;4.30;;;3.40;97.30;;;;;;5041657;28;21071;-84
2022/01/08 11:01:52;;;;;;;14.17;3.47;;;3.40;97.30;;;;;;5030608;28;20438;-84
2022/01/08 11:04:40;;;;;;;10.30;4.40;;;3.40;97.30;;;;;;5047355;28;20454;-84
2022/01/08 11:07:14;;;;;;;5.70;3.13;;;3.40;97.30;;;;;;5030608;28;20419;-85
2022/01/08 11:09:42;;;;;;;7.83;3.90;;;3.40;97.30;;;;;;5045390;28;20417;-85
2022/01/08 11:12:13;;;;;;;8.13;3.80;;;3.40;97.30;;;;;;5029052;28;20443;-83
2022/01/08 11:14:59;;;;;;;6.10;3.27;;;3.40;97.30;;;;;;5033992;28;20464;-82
2022/01/08 11:17:35;;;;;;;7.90;3.83;;;3.40;97.30;;;;;;5049699;28;20423;-85
2022/01/08 11:20:05;;;;;;;10.50;4.07;;;3.50;97.30;;;;;;5032376;28;20490;-83
2022/01/08 11:22:33;;;;;;;8.67;3.97;;;3.40;97.30;;;;;;5046604;28;20412;-84
2022/01/08 11:25:09;;;;;;;8.87;4.80;;;3.40;97.30;;;;;;5032595;28;20403;-84
2022/01/08 11:28:01;;;;;;;9.60;4.30;;;3.40;97.30;;;;;;5043674;28;20451;-84
2022/01/08 11:30:29;;;;;;;9.67;4.90;;;3.50;97.30;;;;;;5028390;28;20454;-84
2022/01/08 11:32:58;;;;;;;9.47;5.00;;;3.50;97.30;;;;;;5024282;28;20971;-83
2022/01/08 11:35:25;;;;;;;10.27;4.53;;;3.60;97.30;;;;;;5038049;28;20416;-85
2022/01/08 11:37:54;;;;;;;11.57;5.07;;;3.70;97.30;;;;;;5034454;28;21049;-86
2022/01/08 11:40:22;;;;;;;10.40;4.30;;;3.90;97.30;;;;;;5025546;28;20496;-85
2022/01/08 11:42:47;;;;;;;9.70;3.97;;;4.00;97.30;;;;;;5031087;28;20439;-84
2022/01/08 11:45:24;;;;;;;12.37;5.80;;;4.10;97.30;;;;;;5031535;28;20930;-84
2022/01/08 11:47:52;;;;;;;5.20;3.67;;;4.10;97.30;;;;;;5030275;28;20497;-84
2022/01/08 11:50:27;;;;;;;7.07;4.73;;;4.30;97.30;;;;;;5028621;28;20468;-84
2022/01/08 11:53:17;;;;;;;6.30;4.27;;;4.40;97.30;;;;;;5039695;28;20463;-84
2022/01/08 11:55:46;;;;;;;9.47;5.00;;;4.50;97.30;;;;;;5050272;28;20457;-84
2022/01/08 11:58:19;;;;;;;10.70;4.87;;;4.60;97.30;;;;;;5033721;28;20418;-84
2022/01/08 12:00:58;;;;;;;10.50;4.90;;;4.90;97.30;;;;;;5034122;28;21004;-85
2022/01/08 12:03:36;;;;;;;9.93;4.20;;;5.10;97.30;;;;;;5043615;28;20425;-84
2022/01/08 12:06:26;;;;;;;6.80;4.07;;;5.30;97.30;;;;;;5032660;28;20410;-83
2022/01/08 12:09:26;;;;;;;8.50;4.10;;;5.50;97.30;;;;;;5040593;28;20480;-85
2022/01/08 12:11:57;;;;;;;7.57;4.23;;;5.50;97.30;;;;;;5030829;28;20972;-84
2022/01/08 12:14:29;;;;;;;11.63;5.03;;;5.50;97.30;;;;;;5016488;28;20430;-84
2022/01/08 12:17:11;;;;;;;10.93;5.67;;;5.40;97.30;;;;;;5022134;28;20934;-84
2022/01/08 12:19:42;;;;;;;9.67;5.67;;;5.20;97.30;;;;;;5027397;28;20601;-84
2022/01/08 12:22:20;;;;;;;13.47;6.17;;;4.90;97.30;;;;;;5023703;28;20500;-84
2022/01/08 12:24:58;;;;;;;11.93;6.13;;;4.70;97.30;;;;;;5019842;28;20415;-84
2022/01/08 12:27:39;;;;;;;10.83;5.30;;;4.50;97.30;;;;;;5030579;28;20465;-82
2022/01/08 12:30:17;;;;;;;9.10;4.70;;;4.50;97.30;;;;;;5032820;28;20930;-84
2022/01/08 12:32:49;;;;;;;8.93;5.53;;;4.70;97.30;;;;;;5038235;28;20517;-84
2022/01/08 12:37:59;;;;;;;10.97;5.43;;;4.50;97.30;;;;;;5030970;28;20426;-83
2022/01/08 12:40:40;;;;;;;8.60;4.73;;;4.30;97.30;;;;;;5045427;28;20557;-84
2022/01/08 12:43:35;;;;;;;10.13;5.17;;;4.10;97.30;;;;;;5027662;28;20423;-84
2022/01/08 12:46:20;;;;;;;14.87;6.73;;;4.20;97.30;;;;;;5035279;28;20836;-85
2022/01/08 12:49:06;;;;;;;11.20;5.57;;;4.10;97.30;;;;;;5025820;28;20476;-86
2022/01/08 12:51:55;;;;;;;12.80;6.00;;;4.10;97.30;;;;;;5024603;28;20474;-84
2022/01/08 12:54:22;;;;;;;14.33;5.00;;;4.10;97.30;;;;;;5029821;28;20692;-81
2022/01/08 12:56:52;;;;;;;15.30;5.37;;;4.10;97.30;;;;;;5015671;28;20453;-84
2022/01/08 12:59:19;;;;;;;11.03;5.07;;;4.00;97.30;;;;;;5024284;28;20526;-81
2022/01/08 13:01:48;;;;;;;10.77;5.53;;;4.10;97.30;;;;;;5018980;28;20622;-84
2022/01/08 13:04:17;;;;;;;14.13;5.67;;;4.10;97.30;;;;;;5026539;28;20934;-85
2022/01/08 13:06:44;;;;;;;9.10;4.73;;;4.10;97.30;;;;;;5030602;28;20411;-82
2022/01/08 13:09:10;;;;;;;10.13;5.40;;;4.00;97.30;;;;;;5030157;28;20783;-84
2022/01/08 13:11:37;;;;;;;12.87;5.03;;;4.00;97.30;;;;;;5027456;28;20446;-84
2022/01/08 13:14:03;;;;;;;12.60;6.17;;;4.00;97.30;;;;;;5029258;28;20834;-83
2022/01/08 13:16:43;;;;;;;17.23;6.67;;;4.10;97.30;;;;;;5027599;28;20458;-85
2022/01/08 13:19:23;;;;;;;10.93;5.73;;;4.20;97.30;;;;;;5029029;28;20200;-85
2022/01/08 13:21:52;;;;;;;9.87;5.43;;;4.10;97.30;;;;;;5025040;28;20451;-84
2022/01/08 13:24:23;;;;;;;8.90;4.47;;;4.20;97.30;;;;;;5024706;28;20412;-85
2022/01/08 13:26:57;;;;;;;9.50;4.87;;;4.30;97.30;;;;;;5024690;28;20459;-84